sensor_id;sensor_type;location;lat;lon;timestamp;pressure;altitude;pressure_sealevel;temperature;humidity
63204;BME280;49297;43.210;27.914;2023-04-10T00:02:21;101441.81;;;8.08;70.07
63204;BME280;49297;43.210;27.914;2023-04-10T00:04:47;101432.97;;;8.09;70.00
63204;BME280;49297;43.210;27.914;2023-04-10T00:07:12;101434.75;;;8.09;69.85
63204;BME280;49297;43.210;27.914;2023-04-10T00:09:38;101433.06;;;8.08;69.74
63204;BME280;49297;43.210;27.914;2023-04-10T00:12:04;101432.09;;;8.09;69.83
63204;BME280;49297;43.210;27.914;2023-04-10T00:14:30;101429.47;;;8.09;69.71
63204;BME280;49297;43.210;27.914;2023-04-10T00:16:56;101425.88;;;8.10;70.22
63204;BME280;49297;43.210;27.914;2023-04-10T00:19:21;101424.91;;;8.11;69.69
63204;BME280;49297;43.210;27.914;2023-04-10T00:21:47;101425.06;;;8.09;69.72
63204;BME280;49297;43.210;27.914;2023-04-10T00:24:12;101423.44;;;8.07;70.42
63204;BME280;49297;43.210;27.914;2023-04-10T00:26:38;101417.34;;;8.06;69.99
63204;BME280;49297;43.210;27.914;2023-04-10T00:29:03;101419.25;;;8.04;69.89
63204;BME280;49297;43.210;27.914;2023-04-10T00:31:29;101411.53;;;8.01;70.52
63204;BME280;49297;43.210;27.914;2023-04-10T00:33:55;101417.00;;;7.98;69.74
63204;BME280;49297;43.210;27.914;2023-04-10T00:36:21;101407.53;;;7.95;69.97
63204;BME280;49297;43.210;27.914;2023-04-10T00:38:47;101410.25;;;7.94;69.72
63204;BME280;49297;43.210;27.914;2023-04-10T00:41:14;101407.63;;;7.94;70.20
63204;BME280;49297;43.210;27.914;2023-04-10T00:43:40;101399.91;;;7.91;70.59
63204;BME280;49297;43.210;27.914;2023-04-10T00:46:05;101400.09;;;7.88;70.24
63204;BME280;49297;43.210;27.914;2023-04-10T00:48:31;101397.59;;;7.86;70.57
63204;BME280;49297;43.210;27.914;2023-04-10T00:50:58;101390.81;;;7.82;70.19
63204;BME280;49297;43.210;27.914;2023-04-10T00:53:24;101397.06;;;7.81;70.32
63204;BME280;49297;43.210;27.914;2023-04-10T00:55:49;101389.25;;;7.79;70.64
63204;BME280;49297;43.210;27.914;2023-04-10T00:58:15;101392.63;;;7.81;70.70
63204;BME280;49297;43.210;27.914;2023-04-10T01:00:40;101392.63;;;7.81;70.51
63204;BME280;49297;43.210;27.914;2023-04-10T01:03:06;101385.66;;;7.80;70.50
63204;BME280;49297;43.210;27.914;2023-04-10T01:05:40;101389.16;;;7.81;70.63
63204;BME280;49297;43.210;27.914;2023-04-10T01:08:16;101375.00;;;7.82;70.73
63204;BME280;49297;43.210;27.914;2023-04-10T01:13:34;101374.16;;;7.81;70.23
63204;BME280;49297;43.210;27.914;2023-04-10T01:16:04;101381.25;;;7.81;69.51
63204;BME280;49297;43.210;27.914;2023-04-10T01:20:56;101376.28;;;7.76;67.95
63204;BME280;49297;43.210;27.914;2023-04-10T01:26:07;101368.66;;;7.72;67.35
63204;BME280;49297;43.210;27.914;2023-04-10T01:31:05;101374.06;;;7.70;67.60
63204;BME280;49297;43.210;27.914;2023-04-10T01:33:50;101367.91;;;7.70;67.89
63204;BME280;49297;43.210;27.914;2023-04-10T01:36:21;101368.66;;;7.72;67.88
63204;BME280;49297;43.210;27.914;2023-04-10T01:38:48;101377.53;;;7.71;68.39
63204;BME280;49297;43.210;27.914;2023-04-10T01:41:15;101378.25;;;7.73;68.64
63204;BME280;49297;43.210;27.914;2023-04-10T01:43:43;101373.00;;;7.73;68.42
63204;BME280;49297;43.210;27.914;2023-04-10T01:46:12;101367.72;;;7.73;69.07
63204;BME280;49297;43.210;27.914;2023-04-10T01:48:38;101372.91;;;7.74;69.30
63204;BME280;49297;43.210;27.914;2023-04-10T01:51:04;101375.44;;;7.76;69.00
63204;BME280;49297;43.210;27.914;2023-04-10T01:53:31;101373.63;;;7.76;68.98
63204;BME280;49297;43.210;27.914;2023-04-10T01:55:57;101366.47;;;7.78;68.88
63204;BME280;49297;43.210;27.914;2023-04-10T01:58:23;101357.41;;;7.82;68.79
63204;BME280;49297;43.210;27.914;2023-04-10T02:00:49;101358.88;;;7.87;68.44
63204;BME280;49297;43.210;27.914;2023-04-10T02:03:15;101352.44;;;7.91;68.13
63204;BME280;49297;43.210;27.914;2023-04-10T02:05:45;101364.38;;;7.96;68.29
63204;BME280;49297;43.210;27.914;2023-04-10T02:08:22;101357.00;;;8.01;67.29
63204;BME280;49297;43.210;27.914;2023-04-10T02:11:03;101354.25;;;8.03;66.18
63204;BME280;49297;43.210;27.914;2023-04-10T02:13:32;101349.91;;;8.02;65.97
63204;BME280;49297;43.210;27.914;2023-04-10T02:15:59;101346.34;;;8.03;66.16
63204;BME280;49297;43.210;27.914;2023-04-10T02:18:27;101347.94;;;8.06;66.22
63204;BME280;49297;43.210;27.914;2023-04-10T02:20:54;101341.69;;;8.07;65.25
63204;BME280;49297;43.210;27.914;2023-04-10T02:23:20;101345.94;;;8.09;65.76
63204;BME280;49297;43.210;27.914;2023-04-10T02:25:46;101343.28;;;8.09;65.06
63204;BME280;49297;43.210;27.914;2023-04-10T02:28:12;101337.88;;;8.11;65.27
63204;BME280;49297;43.210;27.914;2023-04-10T02:30:37;101345.78;;;8.11;65.74
63204;BME280;49297;43.210;27.914;2023-04-10T02:33:03;101337.88;;;8.11;66.07
63204;BME280;49297;43.210;27.914;2023-04-10T02:35:29;101343.28;;;8.09;66.27
63204;BME280;49297;43.210;27.914;2023-04-10T02:37:55;101345.94;;;8.09;66.09
63204;BME280;49297;43.210;27.914;2023-04-10T02:40:21;101338.03;;;8.09;66.97
63204;BME280;49297;43.210;27.914;2023-04-10T02:42:46;101339.78;;;8.09;66.38
63204;BME280;49297;43.210;27.914;2023-04-10T02:45:12;101338.13;;;8.08;66.20
63204;BME280;49297;43.210;27.914;2023-04-10T02:47:37;101332.94;;;8.06;66.62
63204;BME280;49297;43.210;27.914;2023-04-10T02:50:03;101342.66;;;8.06;66.07
63204;BME280;49297;43.210;27.914;2023-04-10T02:52:29;101339.16;;;8.05;65.67
63204;BME280;49297;43.210;27.914;2023-04-10T02:54:55;101338.97;;;8.08;65.72
63204;BME280;49297;43.210;27.914;2023-04-10T02:57:20;101336.31;;;8.08;65.69
63204;BME280;49297;43.210;27.914;2023-04-10T02:59:49;101337.25;;;8.07;64.44
63204;BME280;49297;43.210;27.914;2023-04-10T03:02:15;101334.63;;;8.07;64.62
63204;BME280;49297;43.210;27.914;2023-04-10T03:04:41;101328.81;;;8.02;63.82
63204;BME280;49297;43.210;27.914;2023-04-10T03:07:07;101338.72;;;7.98;64.37
63204;BME280;49297;43.210;27.914;2023-04-10T03:09:32;101336.22;;;7.97;64.28
63204;BME280;49297;43.210;27.914;2023-04-10T03:11:58;101330.41;;;7.92;64.27
63204;BME280;49297;43.210;27.914;2023-04-10T03:14:23;101329.69;;;7.90;64.51
63204;BME280;49297;43.210;27.914;2023-04-10T03:16:49;101330.63;;;7.89;64.83
63204;BME280;49297;43.210;27.914;2023-04-10T03:19:14;101323.53;;;7.89;63.97
63204;BME280;49297;43.210;27.914;2023-04-10T03:21:40;101324.63;;;7.87;64.30
63204;BME280;49297;43.210;27.914;2023-04-10T03:24:06;101325.66;;;7.84;64.64
63204;BME280;49297;43.210;27.914;2023-04-10T03:26:31;101320.38;;;7.84;65.00
63204;BME280;49297;43.210;27.914;2023-04-10T03:28:57;101323.16;;;7.82;64.78
63204;BME280;49297;43.210;27.914;2023-04-10T03:31:22;101314.28;;;7.84;65.05
63204;BME280;49297;43.210;27.914;2023-04-10T03:33:48;101311.63;;;7.84;65.24
63204;BME280;49297;43.210;27.914;2023-04-10T03:36:14;101317.63;;;7.86;65.20
63204;BME280;49297;43.210;27.914;2023-04-10T03:38:39;101318.28;;;7.89;65.96
63204;BME280;49297;43.210;27.914;2023-04-10T03:41:05;101315.44;;;7.92;65.68
63204;BME280;49297;43.210;27.914;2023-04-10T03:43:31;101311.00;;;7.93;65.68
63204;BME280;49297;43.210;27.914;2023-04-10T03:45:56;101310.06;;;7.94;65.68
63204;BME280;49297;43.210;27.914;2023-04-10T03:48:22;101312.59;;;7.95;65.82
63204;BME280;49297;43.210;27.914;2023-04-10T03:50:48;101316.16;;;7.94;66.41
63204;BME280;49297;43.210;27.914;2023-04-10T03:53:13;101304.59;;;7.97;65.68
63204;BME280;49297;43.210;27.914;2023-04-10T03:55:39;101307.84;;;8.00;65.63
63204;BME280;49297;43.210;27.914;2023-04-10T03:58:05;101310.34;;;8.02;66.13
63204;BME280;49297;43.210;27.914;2023-04-10T04:00:31;101318.16;;;8.04;66.23
63204;BME280;49297;43.210;27.914;2023-04-10T04:02:56;101324.06;;;8.07;66.37
63204;BME280;49297;43.210;27.914;2023-04-10T04:05:23;101328.31;;;8.10;66.32
63204;BME280;49297;43.210;27.914;2023-04-10T04:07:49;101322.81;;;8.13;66.67
63204;BME280;49297;43.210;27.914;2023-04-10T04:10:14;101320.19;;;8.13;66.53
63204;BME280;49297;43.210;27.914;2023-04-10T04:12:40;101325.31;;;8.14;66.07
63204;BME280;49297;43.210;27.914;2023-04-10T04:15:06;101328.72;;;8.16;66.03
63204;BME280;49297;43.210;27.914;2023-04-10T04:17:31;101327.75;;;8.17;65.55
63204;BME280;49297;43.210;27.914;2023-04-10T04:19:57;101323.22;;;8.19;65.33
63204;BME280;49297;43.210;27.914;2023-04-10T04:22:22;101326.47;;;8.23;65.07
63204;BME280;49297;43.210;27.914;2023-04-10T04:24:48;101325.34;;;8.27;65.18
63204;BME280;49297;43.210;27.914;2023-04-10T04:27:13;101322.16;;;8.35;65.10
63204;BME280;49297;43.210;27.914;2023-04-10T04:29:39;101322.66;;;8.40;65.56
63204;BME280;49297;43.210;27.914;2023-04-10T04:32:05;101318.78;;;8.46;64.60
63204;BME280;49297;43.210;27.914;2023-04-10T04:34:30;101329.75;;;8.52;64.51
63204;BME280;49297;43.210;27.914;2023-04-10T04:36:56;101321.38;;;8.58;64.54
63204;BME280;49297;43.210;27.914;2023-04-10T04:39:21;101325.38;;;8.64;63.92
63204;BME280;49297;43.210;27.914;2023-04-10T04:41:47;101325.78;;;8.71;63.77
63204;BME280;49297;43.210;27.914;2023-04-10T04:44:13;101328.00;;;8.77;63.53
63204;BME280;49297;43.210;27.914;2023-04-10T04:46:38;101328.47;;;8.82;63.28
63204;BME280;49297;43.210;27.914;2023-04-10T04:49:04;101328.63;;;8.81;63.02
63204;BME280;49297;43.210;27.914;2023-04-10T04:51:30;101329.25;;;8.84;63.55
63204;BME280;49297;43.210;27.914;2023-04-10T04:53:55;101322.66;;;8.90;63.23
63204;BME280;49297;43.210;27.914;2023-04-10T04:56:21;101312.34;;;8.98;62.67
63204;BME280;49297;43.210;27.914;2023-04-10T04:58:46;101321.66;;;9.04;62.64
63204;BME280;49297;43.210;27.914;2023-04-10T05:01:12;101312.31;;;9.11;62.44
63204;BME280;49297;43.210;27.914;2023-04-10T05:03:37;101322.41;;;9.17;62.33
63204;BME280;49297;43.210;27.914;2023-04-10T05:06:04;101328.94;;;9.24;62.30
63204;BME280;49297;43.210;27.914;2023-04-10T05:08:30;101325.97;;;9.29;62.06
63204;BME280;49297;43.210;27.914;2023-04-10T05:10:55;101328.25;;;9.33;61.83
63204;BME280;49297;43.210;27.914;2023-04-10T05:13:21;101333.09;;;9.40;62.27
63204;BME280;49297;43.210;27.914;2023-04-10T05:15:47;101332.63;;;9.46;61.50
63204;BME280;49297;43.210;27.914;2023-04-10T05:18:12;101329.63;;;9.50;62.11
63204;BME280;49297;43.210;27.914;2023-04-10T05:20:38;101330.97;;;9.56;62.13
63204;BME280;49297;43.210;27.914;2023-04-10T05:23:04;101334.94;;;9.62;62.33
63204;BME280;49297;43.210;27.914;2023-04-10T05:25:29;101327.63;;;9.65;62.03
63204;BME280;49297;43.210;27.914;2023-04-10T05:27:55;101334.34;;;9.69;62.17
63204;BME280;49297;43.210;27.914;2023-04-10T05:30:21;101327.78;;;9.75;61.97
63204;BME280;49297;43.210;27.914;2023-04-10T05:32:46;101338.00;;;9.80;61.66
63204;BME280;49297;43.210;27.914;2023-04-10T05:35:12;101334.63;;;9.89;61.38
63204;BME280;49297;43.210;27.914;2023-04-10T05:37:38;101333.09;;;9.98;60.49
63204;BME280;49297;43.210;27.914;2023-04-10T05:40:03;101330.47;;;10.09;59.85
63204;BME280;49297;43.210;27.914;2023-04-10T05:42:29;101323.47;;;10.19;59.63
63204;BME280;49297;43.210;27.914;2023-04-10T05:44:55;101323.50;;;10.31;59.22
63204;BME280;49297;43.210;27.914;2023-04-10T05:47:22;101334.09;;;10.42;58.18
63204;BME280;49297;43.210;27.914;2023-04-10T05:49:47;101331.56;;;10.52;57.90
63204;BME280;49297;43.210;27.914;2023-04-10T05:52:13;101337.09;;;10.60;58.01
63204;BME280;49297;43.210;27.914;2023-04-10T05:54:38;101331.75;;;10.71;57.73
63204;BME280;49297;43.210;27.914;2023-04-10T05:57:04;101332.59;;;10.83;57.74
63204;BME280;49297;43.210;27.914;2023-04-10T05:59:29;101337.41;;;10.89;57.83
63204;BME280;49297;43.210;27.914;2023-04-10T06:01:55;101336.88;;;10.95;57.32
63204;BME280;49297;43.210;27.914;2023-04-10T06:04:21;101330.13;;;11.02;56.52
63204;BME280;49297;43.210;27.914;2023-04-10T06:06:47;101333.13;;;11.09;56.68
63204;BME280;49297;43.210;27.914;2023-04-10T06:09:13;101335.78;;;11.09;55.23
63204;BME280;49297;43.210;27.914;2023-04-10T06:11:38;101336.47;;;11.11;55.94
63204;BME280;49297;43.210;27.914;2023-04-10T06:14:04;101331.88;;;11.13;55.62
63204;BME280;49297;43.210;27.914;2023-04-10T06:16:30;101337.19;;;11.13;55.75
63204;BME280;49297;43.210;27.914;2023-04-10T06:18:56;101330.94;;;11.14;55.48
63204;BME280;49297;43.210;27.914;2023-04-10T06:21:22;101340.31;;;11.18;55.44
63204;BME280;49297;43.210;27.914;2023-04-10T06:23:48;101338.38;;;11.20;55.39
63204;BME280;49297;43.210;27.914;2023-04-10T06:26:14;101340.78;;;11.23;54.97
63204;BME280;49297;43.210;27.914;2023-04-10T06:28:39;101344.97;;;11.26;55.09
63204;BME280;49297;43.210;27.914;2023-04-10T06:31:05;101349.19;;;11.29;55.13
63204;BME280;49297;43.210;27.914;2023-04-10T06:33:31;101357.13;;;11.29;54.78
63204;BME280;49297;43.210;27.914;2023-04-10T06:35:57;101347.50;;;11.28;54.93
63204;BME280;49297;43.210;27.914;2023-04-10T06:38:23;101344.72;;;11.29;54.72
63204;BME280;49297;43.210;27.914;2023-04-10T06:40:48;101349.78;;;11.32;54.12
63204;BME280;49297;43.210;27.914;2023-04-10T06:43:14;101351.78;;;11.40;54.34
63204;BME280;49297;43.210;27.914;2023-04-10T06:45:39;101353.78;;;11.48;54.19
63204;BME280;49297;43.210;27.914;2023-04-10T06:48:05;101355.22;;;11.52;53.50
63204;BME280;49297;43.210;27.914;2023-04-10T06:50:31;101344.09;;;11.58;53.61
63204;BME280;49297;43.210;27.914;2023-04-10T06:52:56;101350.69;;;11.63;53.50
63204;BME280;49297;43.210;27.914;2023-04-10T06:55:27;101346.84;;;11.68;53.53
63204;BME280;49297;43.210;27.914;2023-04-10T06:57:52;101355.97;;;11.75;53.19
63204;BME280;49297;43.210;27.914;2023-04-10T07:00:20;101358.91;;;11.81;52.73
63204;BME280;49297;43.210;27.914;2023-04-10T07:02:46;101356.72;;;11.87;52.36
63204;BME280;49297;43.210;27.914;2023-04-10T07:05:12;101355.38;;;11.92;52.22
63204;BME280;49297;43.210;27.914;2023-04-10T07:07:38;101352.34;;;11.97;51.87
63204;BME280;49297;43.210;27.914;2023-04-10T07:10:03;101351.97;;;12.02;51.95
63204;BME280;49297;43.210;27.914;2023-04-10T07:12:29;101348.88;;;12.06;51.69
63204;BME280;49297;43.210;27.914;2023-04-10T07:14:54;101351.03;;;12.12;51.84
63204;BME280;49297;43.210;27.914;2023-04-10T07:17:20;101351.91;;;12.23;51.72
63204;BME280;49297;43.210;27.914;2023-04-10T07:19:46;101352.34;;;12.28;51.47
63204;BME280;49297;43.210;27.914;2023-04-10T07:22:11;101363.16;;;12.36;51.48
63204;BME280;49297;43.210;27.914;2023-04-10T07:24:37;101361.25;;;12.48;51.34
63204;BME280;49297;43.210;27.914;2023-04-10T07:27:02;101355.81;;;12.59;51.02
63204;BME280;49297;43.210;27.914;2023-04-10T07:29:28;101358.63;;;12.67;51.20
63204;BME280;49297;43.210;27.914;2023-04-10T07:31:54;101348.88;;;12.77;50.86
63204;BME280;49297;43.210;27.914;2023-04-10T07:34:29;101354.09;;;12.89;50.85
63204;BME280;49297;43.210;27.914;2023-04-10T07:36:57;101357.56;;;12.99;50.45
63204;BME280;49297;43.210;27.914;2023-04-10T07:39:22;101356.47;;;13.11;50.32
63204;BME280;49297;43.210;27.914;2023-04-10T07:41:48;101357.34;;;13.22;50.13
63204;BME280;49297;43.210;27.914;2023-04-10T07:44:13;101351.19;;;13.31;49.87
63204;BME280;49297;43.210;27.914;2023-04-10T07:46:39;101345.19;;;13.39;49.98
63204;BME280;49297;43.210;27.914;2023-04-10T07:49:05;101343.50;;;13.47;49.63
63204;BME280;49297;43.210;27.914;2023-04-10T07:51:31;101342.53;;;13.48;49.75
63204;BME280;49297;43.210;27.914;2023-04-10T07:53:56;101342.66;;;13.57;49.88
63204;BME280;49297;43.210;27.914;2023-04-10T07:56:22;101341.25;;;13.62;49.43
63204;BME280;49297;43.210;27.914;2023-04-10T07:58:50;101343.31;;;13.68;49.16
63204;BME280;49297;43.210;27.914;2023-04-10T08:01:16;101334.66;;;13.66;49.23
63204;BME280;49297;43.210;27.914;2023-04-10T08:03:42;101333.97;;;13.64;49.63
63204;BME280;49297;43.210;27.914;2023-04-10T08:06:08;101325.97;;;13.64;49.69
63204;BME280;49297;43.210;27.914;2023-04-10T08:08:37;101318.84;;;13.65;49.74
63204;BME280;49297;43.210;27.914;2023-04-10T08:11:06;101323.47;;;13.73;49.80
63204;BME280;49297;43.210;27.914;2023-04-10T08:13:32;101312.38;;;13.77;49.54
63204;BME280;49297;43.210;27.914;2023-04-10T08:15:57;101323.41;;;13.82;49.52
63204;BME280;49297;43.210;27.914;2023-04-10T08:18:23;101325.38;;;13.80;49.62
63204;BME280;49297;43.210;27.914;2023-04-10T08:20:48;101313.06;;;13.79;49.70
63204;BME280;49297;43.210;27.914;2023-04-10T08:23:14;101313.31;;;13.86;49.42
63204;BME280;49297;43.210;27.914;2023-04-10T08:25:39;101317.22;;;13.92;49.33
63204;BME280;49297;43.210;27.914;2023-04-10T08:28:05;101307.53;;;14.00;49.04
63204;BME280;49297;43.210;27.914;2023-04-10T08:30:30;101312.44;;;14.05;49.19
63204;BME280;49297;43.210;27.914;2023-04-10T08:32:56;101312.28;;;14.06;49.10
63204;BME280;49297;43.210;27.914;2023-04-10T08:35:21;101305.69;;;14.11;49.12
63204;BME280;49297;43.210;27.914;2023-04-10T08:37:47;101308.63;;;14.07;49.56
63204;BME280;49297;43.210;27.914;2023-04-10T08:40:12;101311.56;;;14.04;49.91
63204;BME280;49297;43.210;27.914;2023-04-10T08:42:38;101304.72;;;14.02;50.07
63204;BME280;49297;43.210;27.914;2023-04-10T08:45:04;101314.84;;;13.98;49.91
63204;BME280;49297;43.210;27.914;2023-04-10T08:47:30;101302.50;;;13.97;50.11
63204;BME280;49297;43.210;27.914;2023-04-10T08:50:00;101298.44;;;13.93;50.37
63204;BME280;49297;43.210;27.914;2023-04-10T08:52:28;101291.47;;;13.82;50.54
63204;BME280;49297;43.210;27.914;2023-04-10T08:54:55;101289.66;;;13.83;50.84
63204;BME280;49297;43.210;27.914;2023-04-10T08:57:23;101285.03;;;13.85;51.04
63204;BME280;49297;43.210;27.914;2023-04-10T08:59:49;101291.88;;;13.87;51.03
63204;BME280;49297;43.210;27.914;2023-04-10T09:02:16;101288.94;;;13.90;51.03
63204;BME280;49297;43.210;27.914;2023-04-10T09:04:51;101279.81;;;13.93;51.10
63204;BME280;49297;43.210;27.914;2023-04-10T09:07:19;101273.66;;;13.93;51.20
63204;BME280;49297;43.210;27.914;2023-04-10T09:09:45;101289.63;;;13.93;51.68
63204;BME280;49297;43.210;27.914;2023-04-10T09:12:11;101270.31;;;13.90;51.24
63204;BME280;49297;43.210;27.914;2023-04-10T09:14:39;101271.00;;;13.93;51.52
63204;BME280;49297;43.210;27.914;2023-04-10T09:19:39;101256.69;;;13.94;51.61
63204;BME280;49297;43.210;27.914;2023-04-10T09:22:05;101262.88;;;13.94;51.71
63204;BME280;49297;43.210;27.914;2023-04-10T09:24:34;101255.44;;;13.98;51.92
63204;BME280;49297;43.210;27.914;2023-04-10T09:27:00;101257.78;;;14.01;52.03
63204;BME280;49297;43.210;27.914;2023-04-10T09:29:26;101251.78;;;13.99;52.67
63204;BME280;49297;43.210;27.914;2023-04-10T09:32:02;101258.66;;;14.01;52.50
63204;BME280;49297;43.210;27.914;2023-04-10T09:34:28;101256.53;;;14.05;52.58
63204;BME280;49297;43.210;27.914;2023-04-10T09:36:54;101244.88;;;14.06;53.20
63204;BME280;49297;43.210;27.914;2023-04-10T09:39:20;101240.22;;;14.08;53.09
63204;BME280;49297;43.210;27.914;2023-04-10T09:41:50;101243.00;;;14.16;53.16
63204;BME280;49297;43.210;27.914;2023-04-10T09:44:17;101237.41;;;14.19;53.08
63204;BME280;49297;43.210;27.914;2023-04-10T09:46:44;101230.09;;;14.21;53.15
63204;BME280;49297;43.210;27.914;2023-04-10T09:49:10;101238.47;;;14.26;53.28
63204;BME280;49297;43.210;27.914;2023-04-10T09:51:35;101239.25;;;14.37;52.94
63204;BME280;49297;43.210;27.914;2023-04-10T09:54:02;101241.16;;;14.44;52.59
63204;BME280;49297;43.210;27.914;2023-04-10T09:56:31;101231.19;;;14.46;52.61
63204;BME280;49297;43.210;27.914;2023-04-10T09:58:59;101233.72;;;14.48;52.83
63204;BME280;49297;43.210;27.914;2023-04-10T10:01:27;101237.19;;;14.48;52.44
63204;BME280;49297;43.210;27.914;2023-04-10T10:03:53;101232.41;;;14.52;52.36
63204;BME280;49297;43.210;27.914;2023-04-10T10:06:19;101228.53;;;14.46;51.95
63204;BME280;49297;43.210;27.914;2023-04-10T10:08:45;101225.88;;;14.46;52.27
63204;BME280;49297;43.210;27.914;2023-04-10T10:11:12;101219.72;;;14.46;51.97
63204;BME280;49297;43.210;27.914;2023-04-10T10:13:46;101215.22;;;14.46;51.87
63204;BME280;49297;43.210;27.914;2023-04-10T10:21:23;101213.88;;;14.60;51.79
63204;BME280;49297;43.210;27.914;2023-04-10T10:23:49;101212.34;;;14.58;51.57
63204;BME280;49297;43.210;27.914;2023-04-10T10:26:19;101206.91;;;14.50;52.19
63204;BME280;49297;43.210;27.914;2023-04-10T10:28:49;101200.38;;;14.44;52.24
63204;BME280;49297;43.210;27.914;2023-04-10T10:31:16;101204.13;;;14.51;51.94
63204;BME280;49297;43.210;27.914;2023-04-10T10:33:42;101196.66;;;14.55;52.42
63204;BME280;49297;43.210;27.914;2023-04-10T10:36:08;101194.66;;;14.57;52.23
63204;BME280;49297;43.210;27.914;2023-04-10T10:38:35;101193.53;;;14.59;52.10
63204;BME280;49297;43.210;27.914;2023-04-10T10:45:59;101181.34;;;14.57;52.43
63204;BME280;49297;43.210;27.914;2023-04-10T10:48:26;101173.34;;;14.57;52.52
63204;BME280;49297;43.210;27.914;2023-04-10T10:50:53;101165.44;;;14.65;52.29
63204;BME280;49297;43.210;27.914;2023-04-10T10:53:31;101162.03;;;14.73;52.44
63204;BME280;49297;43.210;27.914;2023-04-10T10:55:57;101157.00;;;14.70;52.26
63204;BME280;49297;43.210;27.914;2023-04-10T11:01:07;101146.53;;;14.94;51.08
63204;BME280;49297;43.210;27.914;2023-04-10T11:03:33;101147.44;;;15.03;50.54
63204;BME280;49297;43.210;27.914;2023-04-10T11:05:59;101137.97;;;15.09;49.83
63204;BME280;49297;43.210;27.914;2023-04-10T11:11:25;101146.34;;;15.14;50.31
63204;BME280;49297;43.210;27.914;2023-04-10T11:16:17;101143.22;;;14.74;49.70
63204;BME280;49297;43.210;27.914;2023-04-10T11:21:18;101136.75;;;14.59;50.25
63204;BME280;49297;43.210;27.914;2023-04-10T11:29:48;101134.75;;;14.43;50.93
63204;BME280;49297;43.210;27.914;2023-04-10T11:31:56;101144.78;;;14.31;51.96
63204;BME280;49297;43.210;27.914;2023-04-10T11:34:22;101133.22;;;14.22;52.38
63204;BME280;49297;43.210;27.914;2023-04-10T11:36:47;101144.94;;;14.12;53.19
63204;BME280;49297;43.210;27.914;2023-04-10T11:39:14;101143.78;;;13.96;53.31
63204;BME280;49297;43.210;27.914;2023-04-10T11:41:50;101142.44;;;13.82;54.04
63204;BME280;49297;43.210;27.914;2023-04-10T11:44:17;101131.16;;;13.70;54.19
63204;BME280;49297;43.210;27.914;2023-04-10T11:46:45;101125.28;;;13.67;54.89
63204;BME280;49297;43.210;27.914;2023-04-10T11:49:12;101132.44;;;13.66;55.18
63204;BME280;49297;43.210;27.914;2023-04-10T11:51:43;101136.25;;;13.64;55.51
63204;BME280;49297;43.210;27.914;2023-04-10T11:54:14;101136.94;;;13.66;55.43
63204;BME280;49297;43.210;27.914;2023-04-10T11:56:41;101132.69;;;13.73;55.97
63204;BME280;49297;43.210;27.914;2023-04-10T11:59:07;101136.19;;;13.74;56.18
63204;BME280;49297;43.210;27.914;2023-04-10T12:01:39;101131.91;;;13.63;57.92
63204;BME280;49297;43.210;27.914;2023-04-10T12:04:12;101133.75;;;13.52;58.27
63204;BME280;49297;43.210;27.914;2023-04-10T12:06:37;101130.00;;;13.45;58.74
63204;BME280;49297;43.210;27.914;2023-04-10T12:09:11;101116.31;;;13.40;59.00
63204;BME280;49297;43.210;27.914;2023-04-10T12:11:37;101112.81;;;13.40;59.08
63204;BME280;49297;43.210;27.914;2023-04-10T12:14:03;101114.81;;;13.38;58.89
63204;BME280;49297;43.210;27.914;2023-04-10T12:16:28;101111.84;;;13.41;59.15
63204;BME280;49297;43.210;27.914;2023-04-10T12:18:54;101103.28;;;13.47;58.88
63204;BME280;49297;43.210;27.914;2023-04-10T12:21:19;101101.69;;;13.54;58.78
63204;BME280;49297;43.210;27.914;2023-04-10T12:23:45;101106.31;;;13.62;57.91
63204;BME280;49297;43.210;27.914;2023-04-10T12:26:14;101090.72;;;13.67;56.79
63204;BME280;49297;43.210;27.914;2023-04-10T12:28:50;101091.50;;;13.77;56.09
63204;BME280;49297;43.210;27.914;2023-04-10T12:31:16;101085.50;;;13.93;55.64
63204;BME280;49297;43.210;27.914;2023-04-10T12:33:45;101080.50;;;14.08;55.15
63204;BME280;49297;43.210;27.914;2023-04-10T12:36:20;101077.84;;;14.26;54.23
63204;BME280;49297;43.210;27.914;2023-04-10T12:38:46;101073.06;;;14.30;54.05
63204;BME280;49297;43.210;27.914;2023-04-10T12:41:11;101072.88;;;14.31;53.32
63204;BME280;49297;43.210;27.914;2023-04-10T12:43:38;101063.91;;;14.32;53.13
63204;BME280;49297;43.210;27.914;2023-04-10T12:46:04;101060.81;;;14.37;52.50
63204;BME280;49297;43.210;27.914;2023-04-10T12:48:30;101054.03;;;14.42;52.17
63204;BME280;49297;43.210;27.914;2023-04-10T12:50:56;101049.22;;;14.46;52.06
63204;BME280;49297;43.210;27.914;2023-04-10T12:53:22;101045.25;;;14.50;50.88
63204;BME280;49297;43.210;27.914;2023-04-10T12:56:01;101048.44;;;14.54;50.91
63204;BME280;49297;43.210;27.914;2023-04-10T12:58:27;101034.97;;;14.55;50.32
63204;BME280;49297;43.210;27.914;2023-04-10T13:00:55;101048.84;;;14.59;50.03
63204;BME280;49297;43.210;27.914;2023-04-10T13:03:21;101046.44;;;14.56;49.88
63204;BME280;49297;43.210;27.914;2023-04-10T13:05:47;101042.13;;;14.55;50.07
63204;BME280;49297;43.210;27.914;2023-04-10T13:08:13;101040.13;;;14.57;50.00
63204;BME280;49297;43.210;27.914;2023-04-10T13:10:38;101038.59;;;14.54;49.81
63204;BME280;49297;43.210;27.914;2023-04-10T13:13:06;101045.91;;;14.52;49.60
63204;BME280;49297;43.210;27.914;2023-04-10T13:15:33;101028.09;;;14.53;49.32
63204;BME280;49297;43.210;27.914;2023-04-10T13:18:01;101033.97;;;14.56;49.26
63204;BME280;49297;43.210;27.914;2023-04-10T13:20:27;101034.69;;;14.58;49.65
63204;BME280;49297;43.210;27.914;2023-04-10T13:22:53;101036.78;;;14.55;49.04